createdAt,value
2016-08-22T00:00:21.973Z,0
2016-08-22T00:01:21.971Z,0
2016-08-22T00:02:21.974Z,0
2016-08-22T00:03:23.399Z,0
2016-08-22T00:04:21.977Z,0
2016-08-22T00:05:21.977Z,0
2016-08-22T00:06:21.984Z,0
2016-08-22T00:07:21.972Z,0
2016-08-22T00:08:21.981Z,0
2016-08-22T00:09:21.978Z,0
2016-08-22T00:10:21.989Z,0
2016-08-22T00:11:21.980Z,0
2016-08-22T00:12:21.990Z,0
2016-08-22T00:13:21.979Z,0
2016-08-22T00:14:21.984Z,0
2016-08-22T00:15:21.978Z,0
2016-08-22T00:16:21.982Z,0
2016-08-22T00:17:21.982Z,0
2016-08-22T00:18:21.983Z,0
2016-08-22T00:19:22.004Z,0
2016-08-22T00:20:22.708Z,0
2016-08-22T00:21:21.984Z,0
2016-08-22T00:22:21.984Z,0
2016-08-22T00:23:21.985Z,0
2016-08-22T00:24:21.981Z,0
2016-08-22T00:25:21.987Z,0
2016-08-22T00:26:21.984Z,0
2016-08-22T00:27:21.991Z,0
2016-08-22T00:28:21.990Z,0
2016-08-22T00:29:21.993Z,0
2016-08-22T00:30:23.423Z,0
2016-08-22T00:31:21.993Z,0
2016-08-22T00:32:21.995Z,0
2016-08-22T00:33:22.023Z,0
2016-08-22T00:34:22.006Z,0
2016-08-22T00:35:22.000Z,0
2016-08-22T00:36:21.997Z,0
2016-08-22T00:37:21.994Z,0
2016-08-22T00:38:22.004Z,0
2016-08-22T00:39:21.991Z,0
2016-08-22T00:40:22.712Z,0
2016-08-22T00:41:21.992Z,0
2016-08-22T00:42:21.995Z,0
2016-08-22T00:43:21.994Z,0
2016-08-22T00:44:21.997Z,0
2016-08-22T00:45:22.036Z,0
2016-08-22T00:46:21.994Z,0
2016-08-22T00:47:21.998Z,0
2016-08-22T00:48:22.007Z,0
2016-08-22T00:49:21.998Z,0
2016-08-22T00:50:22.742Z,0
2016-08-22T00:51:22.001Z,0
2016-08-22T00:52:21.998Z,0
2016-08-22T00:53:22.018Z,0
2016-08-22T00:54:22.017Z,0
2016-08-22T00:55:22.000Z,0
2016-08-22T00:56:22.013Z,0
2016-08-22T00:57:22.014Z,0
2016-08-22T00:58:24.134Z,0
2016-08-22T00:59:22.152Z,0
2016-08-22T01:00:22.739Z,0
2016-08-22T01:01:22.007Z,0
2016-08-22T01:02:22.009Z,0
2016-08-22T01:03:22.712Z,0
2016-08-22T01:04:22.001Z,0
2016-08-22T01:05:22.009Z,0
2016-08-22T01:06:22.005Z,0
2016-08-22T01:07:21.999Z,0
2016-08-22T01:08:22.007Z,0
2016-08-22T01:09:22.018Z,0
2016-08-22T01:10:22.727Z,0
2016-08-22T01:11:22.009Z,0
2016-08-22T01:12:22.030Z,0
2016-08-22T01:13:22.011Z,0
2016-08-22T01:14:22.012Z,0
2016-08-22T01:15:22.747Z,0
2016-08-22T01:16:22.005Z,0
2016-08-22T01:17:22.015Z,0
2016-08-22T01:18:22.013Z,0
2016-08-22T01:19:22.023Z,0
2016-08-22T01:20:22.010Z,0
2016-08-22T01:21:22.009Z,0
2016-08-22T01:22:22.008Z,0
2016-08-22T01:23:22.016Z,0
2016-08-22T01:24:22.010Z,0
2016-08-22T01:25:22.767Z,0
2016-08-22T01:26:22.735Z,0
2016-08-22T01:27:22.002Z,0
2016-08-22T01:28:22.738Z,0
2016-08-22T01:29:22.012Z,0
2016-08-22T01:30:23.418Z,0
2016-08-22T01:31:22.019Z,0
2016-08-22T01:32:22.007Z,0
2016-08-22T01:33:22.012Z,0
2016-08-22T01:34:22.005Z,0
2016-08-22T01:35:22.763Z,0
2016-08-22T01:36:22.738Z,0
2016-08-22T01:37:22.017Z,0
2016-08-22T01:38:22.001Z,0
2016-08-22T01:39:22.005Z,0
2016-08-22T01:40:23.448Z,0
2016-08-22T01:41:22.018Z,0
2016-08-22T01:42:22.014Z,0
2016-08-22T01:43:22.007Z,0
2016-08-22T01:44:22.005Z,0
2016-08-22T01:45:22.718Z,0
2016-08-22T01:46:22.010Z,0
2016-08-22T01:47:22.019Z,0
2016-08-22T01:48:22.013Z,0
2016-08-22T01:49:22.014Z,0
2016-08-22T01:50:22.727Z,0
2016-08-22T01:51:22.011Z,0
2016-08-22T01:52:22.007Z,0
2016-08-22T01:53:22.009Z,0
2016-08-22T01:54:22.007Z,0
2016-08-22T01:55:22.720Z,0
2016-08-22T01:56:22.728Z,0
2016-08-22T01:57:22.006Z,0
2016-08-22T01:58:22.001Z,0
2016-08-22T01:59:22.366Z,0
2016-08-22T02:00:22.781Z,0
2016-08-22T02:01:22.004Z,0
2016-08-22T02:02:22.008Z,0
2016-08-22T02:03:22.006Z,0
2016-08-22T02:04:22.012Z,0
2016-08-22T02:05:22.014Z,0
2016-08-22T02:06:22.009Z,0
2016-08-22T02:07:22.009Z,0
2016-08-22T02:08:22.725Z,0
2016-08-22T02:09:22.008Z,0
2016-08-22T02:10:22.013Z,0
2016-08-22T02:11:22.017Z,0
2016-08-22T02:12:22.002Z,0
2016-08-22T02:13:22.006Z,0
2016-08-22T02:14:22.047Z,0
2016-08-22T02:15:22.006Z,0
2016-08-22T02:16:22.013Z,0
2016-08-22T02:17:22.007Z,0
2016-08-22T02:18:22.013Z,0
2016-08-22T02:19:22.012Z,0
2016-08-22T02:20:22.005Z,0
2016-08-22T02:21:22.013Z,0
2016-08-22T02:22:22.041Z,0
2016-08-22T02:23:22.006Z,0
2016-08-22T02:24:22.724Z,0
2016-08-22T02:25:22.020Z,0
2016-08-22T02:26:22.011Z,0
2016-08-22T02:27:22.007Z,0
2016-08-22T02:28:22.013Z,0
2016-08-22T02:29:22.010Z,0
2016-08-22T02:30:22.743Z,0
2016-08-22T02:31:22.009Z,0
2016-08-22T02:32:22.006Z,0
2016-08-22T02:33:22.014Z,0
2016-08-22T02:34:22.006Z,0
2016-08-22T02:35:22.006Z,0
2016-08-22T02:36:22.020Z,0
2016-08-22T02:37:22.018Z,0
2016-08-22T02:38:22.004Z,0
2016-08-22T02:39:22.023Z,0
2016-08-22T02:40:22.726Z,0
2016-08-22T02:41:22.009Z,0
2016-08-22T02:42:22.007Z,0
2016-08-22T02:43:22.725Z,0
2016-08-22T02:44:22.019Z,0
2016-08-22T02:45:23.446Z,0
2016-08-22T02:46:22.008Z,0
2016-08-22T02:47:22.016Z,0
2016-08-22T02:48:22.025Z,0
2016-08-22T02:49:22.719Z,0
2016-08-22T02:50:22.009Z,0
2016-08-22T02:51:22.007Z,0
2016-08-22T02:52:22.007Z,0
2016-08-22T02:53:22.014Z,0
2016-08-22T02:54:22.007Z,0
2016-08-22T02:55:22.758Z,0
2016-08-22T02:56:22.011Z,0
2016-08-22T02:57:22.011Z,0
2016-08-22T02:58:22.002Z,0
2016-08-22T02:59:22.069Z,0
2016-08-22T03:00:22.015Z,0
2016-08-22T03:01:22.002Z,0
2016-08-22T03:02:22.017Z,0
2016-08-22T03:03:22.004Z,0
2016-08-22T03:04:22.004Z,0
2016-08-22T03:05:22.749Z,0
2016-08-22T03:06:22.009Z,0
2016-08-22T03:07:22.001Z,0
2016-08-22T03:08:22.028Z,0
2016-08-22T03:09:22.015Z,0
2016-08-22T03:10:22.022Z,0
2016-08-22T03:11:22.016Z,0
2016-08-22T03:12:22.029Z,0
2016-08-22T03:13:22.010Z,0
2016-08-22T03:14:22.022Z,0
2016-08-22T03:15:22.743Z,0
2016-08-22T03:16:22.006Z,0
2016-08-22T03:17:22.021Z,0
2016-08-22T03:18:22.015Z,0
2016-08-22T03:19:22.023Z,0
2016-08-22T03:20:22.773Z,0
2016-08-22T03:21:22.013Z,0
2016-08-22T03:22:22.733Z,0
2016-08-22T03:23:22.015Z,0
2016-08-22T03:24:22.025Z,0
2016-08-22T03:25:22.732Z,0
2016-08-22T03:26:22.019Z,0
2016-08-22T03:27:22.019Z,0
2016-08-22T03:28:22.021Z,0
2016-08-22T03:29:22.054Z,0
2016-08-22T03:30:22.058Z,0
2016-08-22T03:31:22.020Z,0
2016-08-22T03:32:22.032Z,0
2016-08-22T03:33:22.034Z,0
2016-08-22T03:34:22.031Z,0
2016-08-22T03:35:22.740Z,0
2016-08-22T03:36:22.032Z,0
2016-08-22T03:37:22.036Z,0
2016-08-22T03:38:22.034Z,0
2016-08-22T03:39:22.036Z,0
2016-08-22T03:40:22.760Z,0
2016-08-22T03:41:22.036Z,0
2016-08-22T03:42:22.035Z,0
2016-08-22T03:43:22.037Z,0
2016-08-22T03:44:22.037Z,0
2016-08-22T03:45:22.041Z,0
2016-08-22T03:46:22.040Z,0
2016-08-22T03:47:22.744Z,0
2016-08-22T03:48:22.041Z,0
2016-08-22T03:49:22.040Z,0
2016-08-22T03:50:22.786Z,0
2016-08-22T03:51:22.749Z,0
2016-08-22T03:52:22.042Z,0
2016-08-22T03:53:22.044Z,0
2016-08-22T03:54:22.043Z,0
2016-08-22T03:55:22.044Z,0
2016-08-22T03:56:22.046Z,0
2016-08-22T03:57:22.044Z,0
2016-08-22T03:58:22.044Z,0
2016-08-22T03:59:22.343Z,0
2016-08-22T04:00:22.776Z,0
2016-08-22T04:01:22.050Z,0
2016-08-22T04:02:22.059Z,0
2016-08-22T04:03:22.047Z,0
2016-08-22T04:04:22.052Z,0
2016-08-22T04:05:22.050Z,0
2016-08-22T04:06:22.037Z,0
2016-08-22T04:07:22.060Z,0
2016-08-22T04:08:22.759Z,0
2016-08-22T04:09:22.043Z,0
2016-08-22T04:10:22.058Z,0
2016-08-22T04:11:22.052Z,0
2016-08-22T04:12:22.045Z,0
2016-08-22T04:13:22.060Z,0
2016-08-22T04:14:22.061Z,0
2016-08-22T04:15:22.798Z,0
2016-08-22T04:16:22.055Z,0
2016-08-22T04:17:22.058Z,0
2016-08-22T04:18:22.058Z,0
2016-08-22T04:19:22.056Z,0
2016-08-22T04:20:22.062Z,0
2016-08-22T04:21:22.764Z,0
2016-08-22T04:22:22.058Z,0
2016-08-22T04:23:22.766Z,0
2016-08-22T04:24:22.065Z,0
2016-08-22T04:25:22.812Z,0
2016-08-22T04:26:22.061Z,0
2016-08-22T04:27:22.063Z,0
2016-08-22T04:28:22.073Z,0
2016-08-22T04:29:22.066Z,5
2016-08-22T04:30:22.804Z,5
2016-08-22T04:31:22.063Z,5
2016-08-22T04:32:22.063Z,5
2016-08-22T04:33:22.054Z,5
2016-08-22T04:34:22.067Z,5
2016-08-22T04:35:22.809Z,5
2016-08-22T04:36:22.073Z,5
2016-08-22T04:37:22.066Z,10
2016-08-22T04:38:22.076Z,10
2016-08-22T04:39:22.069Z,10
2016-08-22T04:40:22.797Z,10
2016-08-22T04:41:22.079Z,10
2016-08-22T04:42:22.074Z,10
2016-08-22T04:43:22.075Z,10
2016-08-22T04:44:22.072Z,10
2016-08-22T04:45:22.824Z,10
2016-08-22T04:46:22.072Z,10
2016-08-22T04:47:22.077Z,15
2016-08-22T04:48:22.073Z,15
2016-08-22T04:49:22.077Z,15
2016-08-22T04:50:22.078Z,15
2016-08-22T04:51:22.073Z,15
2016-08-22T04:52:22.083Z,15
2016-08-22T04:53:22.076Z,15
2016-08-22T04:54:22.075Z,20
2016-08-22T04:55:22.989Z,20
2016-08-22T04:56:22.783Z,20
2016-08-22T04:57:22.087Z,25
2016-08-22T04:58:22.078Z,25
2016-08-22T04:59:22.183Z,25
2016-08-22T05:00:22.081Z,30
2016-08-22T05:01:22.080Z,30
2016-08-22T05:02:22.084Z,35
2016-08-22T05:03:22.093Z,35
2016-08-22T05:04:22.787Z,40
2016-08-22T05:05:22.789Z,40
2016-08-22T05:06:22.087Z,40
2016-08-22T05:07:22.083Z,45
2016-08-22T05:08:22.091Z,45
2016-08-22T05:09:22.803Z,45
2016-08-22T05:10:22.084Z,45
2016-08-22T05:11:22.086Z,45
2016-08-22T05:12:22.095Z,45
2016-08-22T05:13:22.080Z,45
2016-08-22T05:14:22.094Z,45
2016-08-22T05:15:22.088Z,40
2016-08-22T05:16:22.089Z,40
2016-08-22T05:17:22.088Z,40
2016-08-22T05:18:22.089Z,40
2016-08-22T05:19:22.811Z,45
2016-08-22T05:20:22.090Z,45
2016-08-22T05:21:22.082Z,50
2016-08-22T05:22:22.092Z,55
2016-08-22T05:23:22.092Z,50
2016-08-22T05:24:22.094Z,50
2016-08-22T05:25:22.832Z,50
2016-08-22T05:26:22.092Z,55
2016-08-22T05:27:22.094Z,55
2016-08-22T05:28:22.094Z,55
2016-08-22T05:29:22.085Z,55
2016-08-22T05:30:22.128Z,55
2016-08-22T05:31:22.095Z,50
2016-08-22T05:32:22.098Z,50
2016-08-22T05:33:22.801Z,55
2016-08-22T05:34:22.087Z,55
2016-08-22T05:35:22.087Z,55
2016-08-22T05:36:22.090Z,55
2016-08-22T05:37:22.092Z,50
2016-08-22T05:38:22.095Z,50
2016-08-22T05:39:22.084Z,50
2016-08-22T05:40:22.091Z,50
2016-08-22T05:41:22.087Z,45
2016-08-22T05:42:22.086Z,40
2016-08-22T05:43:22.813Z,40
2016-08-22T05:44:22.798Z,45
2016-08-22T05:45:22.841Z,45
2016-08-22T05:46:22.096Z,50
2016-08-22T05:47:22.093Z,55
2016-08-22T05:48:22.099Z,60
2016-08-22T05:49:22.094Z,65
2016-08-22T05:50:22.159Z,70
2016-08-22T05:51:22.101Z,80
2016-08-22T05:52:22.094Z,85
2016-08-22T05:53:22.111Z,95
2016-08-22T05:54:22.814Z,95
2016-08-22T05:55:22.099Z,95
2016-08-22T05:56:22.099Z,95
2016-08-22T05:57:22.116Z,100
2016-08-22T05:58:22.096Z,100
2016-08-22T05:59:22.418Z,105
2016-08-22T06:00:22.856Z,105
2016-08-22T06:01:22.106Z,105
2016-08-22T06:02:22.107Z,105
2016-08-22T06:03:22.110Z,115
2016-08-22T06:04:22.107Z,120
2016-08-22T06:05:22.856Z,130
2016-08-22T06:06:22.107Z,135
2016-08-22T06:07:22.106Z,150
2016-08-22T06:08:22.112Z,165
2016-08-22T06:09:22.825Z,170
2016-08-22T06:10:22.856Z,185
2016-08-22T06:11:22.121Z,195
2016-08-22T06:12:22.130Z,200
2016-08-22T06:13:22.119Z,200
2016-08-22T06:14:22.114Z,200
2016-08-22T06:15:22.880Z,200
2016-08-22T06:16:22.120Z,200
2016-08-22T06:17:22.127Z,195
2016-08-22T06:18:22.127Z,195
2016-08-22T06:19:22.130Z,190
2016-08-22T06:20:22.128Z,190
2016-08-22T06:21:22.130Z,185
2016-08-22T06:22:22.135Z,190
2016-08-22T06:23:22.135Z,240
2016-08-22T06:24:22.849Z,265
2016-08-22T06:25:22.196Z,235
2016-08-22T06:26:22.139Z,230
2016-08-22T06:27:22.185Z,235
2016-08-22T06:28:22.165Z,255
2016-08-22T06:29:23.617Z,215
2016-08-22T06:30:22.958Z,205
2016-08-22T06:31:22.176Z,185
2016-08-22T06:32:22.155Z,210
2016-08-22T06:33:22.179Z,220
2016-08-22T06:34:22.164Z,235
2016-08-22T06:35:22.938Z,225
2016-08-22T06:36:22.206Z,195
2016-08-22T06:37:22.188Z,265
2016-08-22T06:38:22.191Z,350
2016-08-22T06:39:22.181Z,360
2016-08-22T06:40:22.965Z,365
2016-08-22T06:41:22.885Z,380
2016-08-22T06:42:22.189Z,380
2016-08-22T06:43:22.194Z,375
2016-08-22T06:44:23.616Z,345
2016-08-22T06:45:22.955Z,385
2016-08-22T06:46:22.207Z,370
2016-08-22T06:47:22.212Z,380
2016-08-22T06:48:22.210Z,385
2016-08-22T06:49:22.253Z,365
2016-08-22T06:50:22.223Z,285
2016-08-22T06:51:22.941Z,310
2016-08-22T06:52:22.260Z,200
2016-08-22T06:53:22.256Z,300
2016-08-22T06:54:22.256Z,240
2016-08-22T06:55:22.257Z,325
2016-08-22T06:56:22.257Z,310
2016-08-22T06:57:22.259Z,250
2016-08-22T06:58:22.990Z,335
2016-08-22T06:59:22.424Z,330
2016-08-22T07:00:22.294Z,325
2016-08-22T07:01:22.294Z,330
2016-08-22T07:02:22.304Z,325
2016-08-22T07:03:22.302Z,300
2016-08-22T07:04:22.315Z,335
2016-08-22T07:05:22.342Z,330
2016-08-22T07:06:22.401Z,275
2016-08-22T07:07:22.402Z,275
2016-08-22T07:08:23.052Z,310
2016-08-22T07:09:22.356Z,310
2016-08-22T07:10:22.351Z,310
2016-08-22T07:11:22.377Z,315
2016-08-22T07:12:22.367Z,315
2016-08-22T07:13:22.357Z,325
2016-08-22T07:14:22.370Z,315
2016-08-22T07:15:22.380Z,315
2016-08-22T07:16:22.378Z,320
2016-08-22T07:17:22.399Z,315
2016-08-22T07:18:22.406Z,320
2016-08-22T07:19:22.414Z,320
2016-08-22T07:20:22.429Z,320
2016-08-22T07:21:22.426Z,325
2016-08-22T07:22:22.427Z,325
2016-08-22T07:23:22.433Z,325
2016-08-22T07:24:23.161Z,325
2016-08-22T07:25:22.443Z,325
2016-08-22T07:26:22.461Z,325
2016-08-22T07:27:22.466Z,325
2016-08-22T07:28:22.461Z,295
2016-08-22T07:29:22.467Z,280
2016-08-22T07:30:22.478Z,255
2016-08-22T07:31:22.491Z,245
2016-08-22T07:32:22.500Z,240
2016-08-22T07:33:23.208Z,245
2016-08-22T07:34:22.504Z,250
2016-08-22T07:35:22.516Z,250
2016-08-22T07:36:22.521Z,230
2016-08-22T07:37:22.527Z,220
2016-08-22T07:38:22.531Z,245
2016-08-22T07:39:22.538Z,270
2016-08-22T07:40:22.541Z,265
2016-08-22T07:41:22.544Z,255
2016-08-22T07:42:22.559Z,265
2016-08-22T07:43:22.603Z,250
2016-08-22T07:44:22.614Z,250
2016-08-22T07:45:22.565Z,250
2016-08-22T07:46:22.593Z,305
2016-08-22T07:47:22.591Z,240
2016-08-22T07:48:22.608Z,235
2016-08-22T07:49:22.605Z,245
2016-08-22T07:50:22.605Z,255
2016-08-22T07:51:22.598Z,265
2016-08-22T07:52:22.607Z,310
2016-08-22T07:53:22.612Z,300
2016-08-22T07:54:23.342Z,290
2016-08-22T07:55:22.614Z,290
2016-08-22T07:56:22.624Z,280
2016-08-22T07:57:22.627Z,285
2016-08-22T07:58:22.628Z,280
2016-08-22T07:59:22.762Z,270
2016-08-22T08:00:22.643Z,260
2016-08-22T08:01:22.643Z,260
2016-08-22T08:02:22.671Z,245
2016-08-22T08:03:22.668Z,225
2016-08-22T08:04:22.686Z,220
2016-08-22T08:05:22.673Z,250
2016-08-22T08:06:22.682Z,230
2016-08-22T08:07:22.683Z,220
2016-08-22T08:08:22.677Z,215
2016-08-22T08:09:22.693Z,205
2016-08-22T08:10:22.688Z,230
2016-08-22T08:11:22.692Z,225
2016-08-22T08:12:22.701Z,265
2016-08-22T08:13:22.719Z,215
2016-08-22T08:14:22.713Z,320
2016-08-22T08:15:23.423Z,325
2016-08-22T08:16:23.435Z,245
2016-08-22T08:17:22.737Z,235
2016-08-22T08:18:22.789Z,230
2016-08-22T08:19:22.806Z,245
2016-08-22T08:20:22.743Z,220
2016-08-22T08:21:22.747Z,275
2016-08-22T08:22:22.762Z,230
2016-08-22T08:23:23.483Z,230
2016-08-22T08:24:22.766Z,245
2016-08-22T08:25:22.777Z,285
2016-08-22T08:26:22.788Z,255
2016-08-22T08:27:22.818Z,265
2016-08-22T08:28:22.796Z,285
2016-08-22T08:29:23.506Z,300
2016-08-22T08:30:22.794Z,285
2016-08-22T08:31:22.797Z,280
2016-08-22T08:32:22.806Z,270
2016-08-22T08:33:23.519Z,260
2016-08-22T08:34:22.809Z,295
2016-08-22T08:35:22.827Z,255
2016-08-22T08:36:23.540Z,255
2016-08-22T08:37:22.843Z,270
2016-08-22T08:38:22.857Z,275
2016-08-22T08:39:22.861Z,255
2016-08-22T08:40:22.860Z,275
2016-08-22T08:41:22.867Z,285
2016-08-22T08:42:22.871Z,315
2016-08-22T08:43:22.877Z,310
2016-08-22T08:44:22.873Z,310
2016-08-22T08:45:23.598Z,310
2016-08-22T08:46:22.889Z,310
2016-08-22T08:47:22.893Z,310
2016-08-22T08:48:22.919Z,230
2016-08-22T08:49:22.917Z,205
2016-08-22T08:50:22.925Z,290
2016-08-22T08:51:22.931Z,265
2016-08-22T08:52:22.928Z,315
2016-08-22T08:53:23.647Z,315
2016-08-22T08:54:22.970Z,340
2016-08-22T08:55:23.043Z,295
2016-08-22T08:56:23.030Z,270
2016-08-22T08:57:22.952Z,365
2016-08-22T08:58:22.960Z,385
2016-08-22T08:59:23.077Z,330
2016-08-22T09:00:22.977Z,335
2016-08-22T09:01:22.977Z,360
2016-08-22T09:02:22.999Z,380
2016-08-22T09:03:23.007Z,300
2016-08-22T09:04:22.997Z,255
2016-08-22T09:05:23.002Z,230
2016-08-22T09:06:23.006Z,215
2016-08-22T09:07:23.017Z,210
2016-08-22T09:08:23.014Z,210
2016-08-22T09:09:23.026Z,215
2016-08-22T09:10:23.070Z,225
2016-08-22T09:11:23.043Z,225
2016-08-22T09:12:23.039Z,225
2016-08-22T09:13:23.071Z,220
2016-08-22T09:14:23.073Z,255
2016-08-22T09:15:23.070Z,285
2016-08-22T09:16:23.760Z,290
2016-08-22T09:17:23.075Z,225
2016-08-22T09:18:23.072Z,225
2016-08-22T09:19:23.076Z,225
2016-08-22T09:20:23.095Z,235
2016-08-22T09:21:23.087Z,240
2016-08-22T09:22:23.077Z,250
2016-08-22T09:23:23.097Z,310
2016-08-22T09:24:23.103Z,365
2016-08-22T09:25:23.804Z,290
2016-08-22T09:26:23.144Z,295
2016-08-22T09:27:23.106Z,305
2016-08-22T09:28:24.512Z,320
2016-08-22T09:29:23.119Z,350
2016-08-22T09:30:23.141Z,280
2016-08-22T09:31:23.824Z,320
2016-08-22T09:32:23.123Z,330
2016-08-22T09:33:23.140Z,315
2016-08-22T09:34:23.134Z,250
2016-08-22T09:35:23.150Z,290
2016-08-22T09:36:23.158Z,255
2016-08-22T09:37:23.150Z,255
2016-08-22T09:38:23.149Z,225
2016-08-22T09:39:23.173Z,295
2016-08-22T09:40:23.892Z,310
2016-08-22T09:41:23.175Z,320
2016-08-22T09:42:23.187Z,330
2016-08-22T09:43:23.173Z,345
2016-08-22T09:44:23.869Z,355
2016-08-22T09:45:23.191Z,355
2016-08-22T09:46:23.210Z,360
2016-08-22T09:47:23.190Z,355
2016-08-22T09:48:23.897Z,315
2016-08-22T09:49:23.221Z,275
2016-08-22T09:50:23.215Z,300
2016-08-22T09:51:23.244Z,280
2016-08-22T09:52:23.233Z,285
2016-08-22T09:53:23.212Z,285
2016-08-22T09:54:23.225Z,280
2016-08-22T09:55:23.242Z,300
2016-08-22T09:56:23.222Z,300
2016-08-22T09:57:23.232Z,325
2016-08-22T09:58:23.243Z,325
2016-08-22T09:59:23.315Z,330
2016-08-22T10:00:23.250Z,280
2016-08-22T10:01:23.242Z,280
2016-08-22T10:02:23.243Z,275
2016-08-22T10:03:23.264Z,280
2016-08-22T10:04:23.974Z,280
2016-08-22T10:05:23.313Z,285
2016-08-22T10:06:23.967Z,290
2016-08-22T10:07:23.289Z,295
2016-08-22T10:08:23.285Z,300
2016-08-22T10:09:23.297Z,310
2016-08-22T10:10:24.033Z,320
2016-08-22T10:11:23.306Z,330
2016-08-22T10:12:23.288Z,330
2016-08-22T10:13:23.334Z,325
2016-08-22T10:14:24.046Z,330
2016-08-22T10:15:23.316Z,345
2016-08-22T10:16:23.322Z,325
2016-08-22T10:17:23.335Z,330
2016-08-22T10:18:23.319Z,320
2016-08-22T10:19:23.338Z,310
2016-08-22T10:20:23.391Z,310
2016-08-22T10:21:23.341Z,320
2016-08-22T10:22:24.049Z,305
2016-08-22T10:23:23.351Z,300
2016-08-22T10:24:23.349Z,300
2016-08-22T10:25:23.360Z,290
2016-08-22T10:26:23.379Z,295
2016-08-22T10:27:23.382Z,300
2016-08-22T10:28:23.378Z,310
2016-08-22T10:29:23.378Z,315
2016-08-22T10:30:23.384Z,325
2016-08-22T10:31:23.383Z,325
2016-08-22T10:32:23.400Z,320
2016-08-22T10:33:23.388Z,320
2016-08-22T10:34:23.390Z,315
2016-08-22T10:35:24.113Z,315
2016-08-22T10:36:23.409Z,340
2016-08-22T10:37:23.409Z,310
2016-08-22T10:38:23.407Z,310
2016-08-22T10:39:23.426Z,305
2016-08-22T10:40:23.442Z,320
2016-08-22T10:41:23.427Z,330
2016-08-22T10:42:23.432Z,360
2016-08-22T10:43:23.444Z,330
2016-08-22T10:44:23.469Z,330
2016-08-22T10:45:23.447Z,330
2016-08-22T10:46:23.447Z,345
2016-08-22T10:47:23.472Z,340
2016-08-22T10:48:23.459Z,365
2016-08-22T10:49:23.462Z,375
2016-08-22T10:50:23.471Z,345
2016-08-22T10:51:23.463Z,360
2016-08-22T10:52:23.473Z,360
2016-08-22T10:53:23.471Z,360
2016-08-22T10:54:23.482Z,355
2016-08-22T10:55:23.482Z,300
2016-08-22T10:56:23.488Z,300
2016-08-22T10:57:23.492Z,290
2016-08-22T10:58:23.493Z,285
2016-08-22T10:59:23.802Z,295
2016-08-22T11:00:23.504Z,310
2016-08-22T11:01:23.523Z,320
2016-08-22T11:02:24.247Z,325
2016-08-22T11:03:23.523Z,315
2016-08-22T11:04:23.528Z,300
2016-08-22T11:05:23.529Z,285
2016-08-22T11:06:23.531Z,260
2016-08-22T11:07:24.247Z,245
2016-08-22T11:08:23.550Z,235
2016-08-22T11:09:23.546Z,230
2016-08-22T11:10:23.555Z,230
2016-08-22T11:11:23.558Z,235
2016-08-22T11:12:23.562Z,270
2016-08-22T11:13:23.569Z,245
2016-08-22T11:14:23.577Z,235
2016-08-22T11:15:23.575Z,230
2016-08-22T11:16:23.599Z,225
2016-08-22T11:17:23.598Z,225
2016-08-22T11:18:24.296Z,235
2016-08-22T11:19:23.596Z,230
2016-08-22T11:20:23.608Z,230
2016-08-22T11:21:24.309Z,235
2016-08-22T11:22:23.612Z,240
2016-08-22T11:23:23.614Z,270
2016-08-22T11:24:24.320Z,280
2016-08-22T11:25:23.621Z,255
2016-08-22T11:26:23.628Z,255
2016-08-22T11:27:24.344Z,245
2016-08-22T11:28:23.634Z,255
2016-08-22T11:29:23.660Z,260
2016-08-22T11:30:23.643Z,290
2016-08-22T11:31:23.648Z,300
2016-08-22T11:32:23.661Z,270
2016-08-22T11:33:23.660Z,280
2016-08-22T11:34:23.665Z,295
2016-08-22T11:35:23.670Z,305
2016-08-22T11:36:23.679Z,300
2016-08-22T11:37:23.690Z,300
2016-08-22T11:38:23.686Z,305
2016-08-22T11:39:23.693Z,310
2016-08-22T11:40:24.403Z,310
2016-08-22T11:41:23.704Z,295
2016-08-22T11:42:23.699Z,290
2016-08-22T11:43:23.714Z,285
2016-08-22T11:44:23.698Z,290
2016-08-22T11:45:24.443Z,280
2016-08-22T11:46:23.722Z,265
2016-08-22T11:47:23.713Z,240
2016-08-22T11:48:23.718Z,230
2016-08-22T11:49:23.730Z,225
2016-08-22T11:50:23.729Z,220
2016-08-22T11:51:23.756Z,215
2016-08-22T11:52:23.758Z,215
2016-08-22T11:53:23.762Z,225
2016-08-22T11:54:23.754Z,220
2016-08-22T11:55:23.761Z,220
2016-08-22T11:56:23.757Z,220
2016-08-22T11:57:23.761Z,220
2016-08-22T11:58:23.788Z,225
2016-08-22T11:59:23.940Z,240
2016-08-22T12:00:23.797Z,230
2016-08-22T12:01:23.783Z,240
2016-08-22T12:02:23.783Z,260
2016-08-22T12:03:23.785Z,260
2016-08-22T12:04:24.501Z,260
2016-08-22T12:05:24.518Z,250
2016-08-22T12:06:24.513Z,255
2016-08-22T12:07:23.811Z,255
2016-08-22T12:08:24.527Z,255
2016-08-22T12:09:23.831Z,260
2016-08-22T12:10:23.862Z,255
2016-08-22T12:11:23.849Z,255
2016-08-22T12:12:23.854Z,250
2016-08-22T12:13:23.851Z,245
2016-08-22T12:14:23.847Z,250
2016-08-22T12:15:23.859Z,255
2016-08-22T12:16:24.566Z,260
2016-08-22T12:17:23.855Z,245
2016-08-22T12:18:23.863Z,250
2016-08-22T12:19:23.865Z,250
2016-08-22T12:20:23.864Z,255
2016-08-22T12:21:23.874Z,260
2016-08-22T12:22:23.877Z,265
2016-08-22T12:23:24.592Z,275
2016-08-22T12:24:23.876Z,285
2016-08-22T12:25:23.881Z,290
2016-08-22T12:26:23.891Z,300
2016-08-22T12:27:23.887Z,310
2016-08-22T12:28:23.900Z,315
2016-08-22T12:29:23.917Z,320
2016-08-22T12:30:23.913Z,320
2016-08-22T12:31:23.917Z,315
2016-08-22T12:32:23.916Z,315
2016-08-22T12:33:23.941Z,310
2016-08-22T12:34:24.639Z,325
2016-08-22T12:35:23.937Z,315
2016-08-22T12:36:23.952Z,320
2016-08-22T12:37:23.940Z,325
2016-08-22T12:38:23.943Z,325
2016-08-22T12:39:25.362Z,320
2016-08-22T12:40:23.958Z,310
2016-08-22T12:41:23.955Z,305
2016-08-22T12:42:23.956Z,305
2016-08-22T12:43:23.975Z,315
2016-08-22T12:44:23.984Z,295
2016-08-22T12:45:23.980Z,295
2016-08-22T12:46:23.988Z,295
2016-08-22T12:47:23.982Z,300
2016-08-22T12:48:23.977Z,305
2016-08-22T12:49:24.000Z,310
2016-08-22T12:50:24.004Z,310
2016-08-22T12:51:24.003Z,310
2016-08-22T12:52:24.709Z,310
2016-08-22T12:53:24.002Z,320
2016-08-22T12:54:24.008Z,315
2016-08-22T12:55:24.022Z,320
2016-08-22T12:56:24.032Z,320
2016-08-22T12:57:24.021Z,325
2016-08-22T12:58:24.047Z,330
2016-08-22T12:59:24.046Z,330
2016-08-22T13:00:24.066Z,325
2016-08-22T13:01:24.049Z,325
2016-08-22T13:02:24.071Z,320
2016-08-22T13:03:24.061Z,315
2016-08-22T13:04:24.067Z,310
2016-08-22T13:05:24.081Z,305
2016-08-22T13:06:24.075Z,295
2016-08-22T13:07:24.077Z,295
2016-08-22T13:08:24.086Z,295
2016-08-22T13:09:24.085Z,290
2016-08-22T13:10:24.092Z,280
2016-08-22T13:11:24.114Z,280
2016-08-22T13:12:24.109Z,280
2016-08-22T13:13:24.129Z,270
2016-08-22T13:14:24.131Z,270
2016-08-22T13:15:24.118Z,270
2016-08-22T13:16:24.130Z,275
2016-08-22T13:17:24.127Z,275
2016-08-22T13:18:24.143Z,275
2016-08-22T13:19:24.134Z,280
2016-08-22T13:20:24.156Z,285
2016-08-22T13:21:24.160Z,280
2016-08-22T13:22:24.148Z,285
2016-08-22T13:23:24.862Z,295
2016-08-22T13:24:24.194Z,295
2016-08-22T13:25:24.905Z,295
2016-08-22T13:26:24.170Z,300
2016-08-22T13:27:24.193Z,310
2016-08-22T13:28:24.194Z,305
2016-08-22T13:29:24.195Z,310
2016-08-22T13:30:24.930Z,315
2016-08-22T13:31:24.197Z,310
2016-08-22T13:32:24.197Z,310
2016-08-22T13:33:24.199Z,300
2016-08-22T13:34:24.215Z,300
2016-08-22T13:35:24.216Z,300
2016-08-22T13:36:24.229Z,295
2016-08-22T13:37:24.227Z,290
2016-08-22T13:38:24.230Z,290
2016-08-22T13:39:24.234Z,285
2016-08-22T13:40:24.946Z,290
2016-08-22T13:41:24.264Z,295
2016-08-22T13:42:24.265Z,305
2016-08-22T13:43:24.266Z,310
2016-08-22T13:44:24.265Z,315
2016-08-22T13:45:24.261Z,315
2016-08-22T13:46:24.267Z,310
2016-08-22T13:47:24.280Z,305
2016-08-22T13:48:24.283Z,295
2016-08-22T13:49:24.312Z,285
2016-08-22T13:50:24.282Z,285
2016-08-22T13:51:24.336Z,275
2016-08-22T13:52:24.300Z,270
2016-08-22T13:53:24.305Z,260
2016-08-22T13:54:24.304Z,260
2016-08-22T13:55:24.345Z,265
2016-08-22T13:56:24.340Z,280
2016-08-22T13:57:24.332Z,280
2016-08-22T13:58:24.331Z,280
2016-08-22T13:59:24.392Z,285
2016-08-22T14:00:24.333Z,290
2016-08-22T14:01:24.350Z,300
2016-08-22T14:02:24.351Z,310
2016-08-22T14:03:24.349Z,310
2016-08-22T14:04:24.367Z,285
2016-08-22T14:05:24.383Z,290
2016-08-22T14:06:24.354Z,285
2016-08-22T14:07:24.356Z,295